Time;durP1;ratioP1;P1;durP2;ratioP2;P2;SDS_P1;SDS_P2;PMS_P1;PMS_P2;Temp;Humidity;BMP_temperature;BMP_pressure;BME280_temperature;BME280_humidity;BME280_pressure;Samples;Min_cycle;Max_cycle;Signal;HPM_P1;HPM_P2
2022/12/30 00:01:18;;;;;;;2.43;1.60;;;13.40;71.80;;;;;;5092132;28;20454;-72
2022/12/30 00:03:45;;;;;;;4.03;1.50;;;13.40;71.60;;;;;;5091252;28;20535;-73
2022/12/30 00:06:16;;;;;;;4.17;1.63;;;13.50;71.50;;;;;;5084831;28;20490;-72
2022/12/30 00:08:46;;;;;;;2.73;1.60;;;13.50;71.60;;;;;;5091431;28;20855;-72
2022/12/30 00:11:14;;;;;;;3.23;1.27;;;13.50;71.50;;;;;;5090912;28;20470;-72
2022/12/30 00:33:20;;;;;;;2.00;1.17;;;13.20;72.30;;;;;;5091177;28;20462;-72
2022/12/30 00:35:48;;;;;;;3.47;1.30;;;13.00;73.00;;;;;;5091156;28;20439;-72
2022/12/30 00:38:16;;;;;;;2.80;1.30;;;13.00;73.50;;;;;;5091469;28;20957;-72
2022/12/30 00:43:07;;;;;;;3.10;1.50;;;13.00;73.40;;;;;;5091167;28;20446;-72
2022/12/30 00:43:29;;;;;;;2.27;1.33;;;13.00;73.60;;;;;;5090980;28;20549;-72
2022/12/30 00:45:58;;;;;;;4.43;1.97;;;13.00;73.70;;;;;;5090825;28;20482;-72
2022/12/30 00:56:44;;;;;;;3.37;1.50;;;13.00;74.80;;;;;;5081232;28;20442;-72
2022/12/30 00:59:13;;;;;;;2.20;1.70;;;13.00;74.20;;;;;;5074879;28;20447;-72
2022/12/30 01:01:39;;;;;;;4.03;1.70;;;13.20;74.10;;;;;;5084578;28;20458;-73
2022/12/30 01:04:06;;;;;;;2.90;1.80;;;13.10;73.80;;;;;;5074661;28;20523;-73
2022/12/30 01:06:33;;;;;;;4.80;2.07;;;13.20;74.50;;;;;;5075078;28;20482;-73
2022/12/30 01:09:01;;;;;;;2.07;1.33;;;13.20;73.50;;;;;;5083414;28;20451;-72
2022/12/30 01:11:28;;;;;;;2.70;1.40;;;13.30;73.30;;;;;;5094288;28;21021;-72
2022/12/30 01:13:55;;;;;;;5.57;1.73;;;13.30;73.20;;;;;;5091829;28;21003;-72
2022/12/30 01:16:22;;;;;;;2.77;1.33;;;13.40;72.90;;;;;;5094693;28;20465;-72
2022/12/30 01:18:49;;;;;;;4.77;1.70;;;13.40;72.80;;;;;;5094200;28;20446;-73
2022/12/30 01:21:16;;;;;;;1.47;1.23;;;13.50;72.60;;;;;;5094349;28;20456;-72
2022/12/30 01:23:44;;;;;;;3.37;1.50;;;13.50;72.30;;;;;;5093672;28;20849;-73
2022/12/30 01:26:12;;;;;;;2.90;1.63;;;13.50;72.10;;;;;;5094351;28;21018;-72
2022/12/30 01:28:40;;;;;;;3.63;1.80;;;13.50;71.90;;;;;;5093861;28;20447;-73
2022/12/30 01:31:08;;;;;;;2.03;1.80;;;13.50;71.80;;;;;;5093820;28;20450;-73
2022/12/30 01:33:35;;;;;;;3.53;1.57;;;13.50;71.70;;;;;;5094188;28;20533;-72
2022/12/30 01:36:03;;;;;;;1.40;1.30;;;13.40;71.70;;;;;;5094040;28;20533;-72
2022/12/30 01:38:30;;;;;;;2.37;1.70;;;13.40;71.80;;;;;;5093513;28;20512;-72
2022/12/30 01:40:58;;;;;;;2.73;1.67;;;13.40;71.60;;;;;;5093769;28;20481;-72
2022/12/30 01:43:44;;;;;;;2.20;1.50;;;13.40;71.40;;;;;;5093895;28;20599;-72
2022/12/30 01:46:15;;;;;;;3.20;1.60;;;13.40;71.70;;;;;;5093623;28;20543;-72
2022/12/30 01:48:42;;;;;;;3.10;1.50;;;13.40;72.40;;;;;;5093455;28;20939;-72
2022/12/30 01:51:13;;;;;;;1.93;1.20;;;13.30;71.40;;;;;;5091022;28;20453;-72
2022/12/30 01:53:43;;;;;;;2.73;1.60;;;13.30;71.50;;;;;;5093336;28;20511;-72
2022/12/30 01:56:14;;;;;;;3.47;1.27;;;13.30;71.50;;;;;;5094126;28;20756;-72
2022/12/30 01:58:48;;;;;;;3.10;1.30;;;13.20;71.50;;;;;;5093404;28;20439;-72
2022/12/30 02:01:15;;;;;;;2.03;1.37;;;13.10;71.70;;;;;;5092628;28;20476;-72
2022/12/30 02:03:45;;;;;;;2.70;1.57;;;13.00;71.40;;;;;;5092856;28;21361;-72
2022/12/30 02:06:15;;;;;;;3.93;1.57;;;13.00;71.60;;;;;;5093365;28;20482;-72
2022/12/30 02:08:42;;;;;;;2.47;1.57;;;13.00;71.70;;;;;;5093124;28;20530;-72
2022/12/30 02:11:09;;;;;;;2.73;1.50;;;13.00;71.70;;;;;;5093419;28;20482;-71
2022/12/30 02:13:36;;;;;;;2.80;1.50;;;12.90;71.90;;;;;;5093797;28;20486;-72
2022/12/30 02:16:28;;;;;;;3.50;1.67;;;12.90;72.00;;;;;;5089506;28;20506;-72
2022/12/30 02:19:13;;;;;;;3.80;1.60;;;12.90;72.00;;;;;;5082520;28;20864;-72
2022/12/30 02:21:54;;;;;;;1.80;1.37;;;13.00;72.60;;;;;;5073353;28;20759;-72
2022/12/30 02:25:03;;;;;;;2.67;1.53;;;13.00;71.60;;;;;;5072997;28;20471;-72
2022/12/30 02:28:13;;;;;;;4.03;1.40;;;13.00;71.50;;;;;;5083962;28;20533;-72
2022/12/30 02:31:08;;;;;;;1.57;1.40;;;13.00;71.30;;;;;;5089178;28;20546;-72
2022/12/30 02:33:42;;;;;;;1.77;1.47;;;13.00;71.30;;;;;;5087507;28;20449;-72
2022/12/30 02:36:17;;;;;;;3.37;1.40;;;13.00;71.00;;;;;;5093217;28;20432;-72
2022/12/30 02:38:48;;;;;;;3.03;1.67;;;12.90;71.10;;;;;;5092376;28;20441;-72
2022/12/30 02:47:04;;;;;;;3.20;1.30;;;12.90;71.30;;;;;;5086495;28;20845;-72
2022/12/30 02:49:35;;;;;;;3.77;1.23;;;13.00;71.10;;;;;;5092981;28;20510;-73
2022/12/30 02:52:14;;;;;;;2.30;1.30;;;13.00;71.00;;;;;;5091641;28;20503;-72
2022/12/30 02:54:43;;;;;;;2.27;1.53;;;13.00;71.10;;;;;;5093061;28;20422;-72
2022/12/30 02:57:27;;;;;;;3.77;1.43;;;12.90;71.40;;;;;;5092797;28;20503;-72
2022/12/30 03:06:17;;;;;;;3.20;1.17;;;13.00;72.00;;;;;;5091715;28;20469;-72
2022/12/30 03:08:51;;;;;;;3.30;1.50;;;13.00;71.90;;;;;;5092244;28;20478;-73
2022/12/30 03:11:18;;;;;;;2.43;1.67;;;13.10;71.90;;;;;;5092124;28;20525;-73
2022/12/30 03:13:56;;;;;;;2.77;1.20;;;13.00;71.70;;;;;;5092080;28;20474;-73
2022/12/30 03:16:28;;;;;;;2.50;1.57;;;13.10;72.00;;;;;;5092663;28;20427;-73
2022/12/30 03:18:59;;;;;;;1.83;1.40;;;13.00;71.70;;;;;;5091767;28;20481;-71
2022/12/30 03:21:28;;;;;;;2.90;1.30;;;13.00;72.00;;;;;;5092504;28;20569;-73
2022/12/30 03:29:30;;;;;;;2.93;1.60;;;13.00;72.70;;;;;;5091831;28;20433;-72
2022/12/30 03:31:58;;;;;;;2.50;1.20;;;13.00;72.70;;;;;;5091699;28;20439;-72
2022/12/30 03:34:28;;;;;;;1.63;1.50;;;12.90;72.90;;;;;;5091880;28;20450;-72
2022/12/30 03:36:59;;;;;;;3.83;1.40;;;12.90;73.30;;;;;;5092004;28;20484;-72
2022/12/30 03:39:31;;;;;;;2.07;1.40;;;12.90;73.50;;;;;;5088186;28;20479;-72
2022/12/30 03:42:00;;;;;;;1.77;1.37;;;12.90;73.80;;;;;;5091357;28;20439;-72
2022/12/30 03:44:27;;;;;;;2.57;1.50;;;12.80;73.70;;;;;;5092198;28;20442;-72
2022/12/30 03:46:54;;;;;;;1.30;1.20;;;12.80;73.50;;;;;;5090982;28;20482;-72
2022/12/30 03:49:21;;;;;;;2.07;1.40;;;12.90;73.60;;;;;;5091551;28;20557;-72
2022/12/30 03:51:49;;;;;;;3.83;1.60;;;12.90;73.50;;;;;;5091152;28;20450;-72
2022/12/30 03:54:16;;;;;;;2.90;1.70;;;12.80;73.20;;;;;;5091892;28;20541;-72
2022/12/30 03:56:43;;;;;;;2.93;1.37;;;12.80;73.20;;;;;;5091888;28;20442;-72
2022/12/30 03:59:11;;;;;;;1.50;1.40;;;12.80;73.10;;;;;;5091447;28;20446;-72
2022/12/30 04:01:38;;;;;;;2.60;1.23;;;12.90;73.20;;;;;;5091917;28;20469;-72
2022/12/30 04:04:05;;;;;;;1.20;1.10;;;12.90;72.90;;;;;;5090641;28;20504;-72
2022/12/30 04:06:32;;;;;;;1.50;1.40;;;12.90;72.80;;;;;;5092233;28;20477;-72
2022/12/30 04:09:01;;;;;;;1.70;1.43;;;12.90;72.80;;;;;;5091289;28;20492;-72
2022/12/30 04:11:28;;;;;;;2.07;1.20;;;12.90;72.70;;;;;;5091732;28;20458;-72
2022/12/30 04:13:55;;;;;;;1.40;1.30;;;12.90;72.30;;;;;;5090881;28;20926;-71
2022/12/30 04:16:22;;;;;;;2.40;1.53;;;12.90;72.00;;;;;;5091710;28;20932;-73
2022/12/30 04:18:49;;;;;;;1.60;1.30;;;12.80;71.70;;;;;;5090764;28;20481;-73
2022/12/30 04:21:16;;;;;;;1.20;1.10;;;12.60;71.90;;;;;;5091590;28;20454;-73
2022/12/30 04:23:43;;;;;;;2.57;1.70;;;12.70;71.70;;;;;;5093596;28;20858;-72
2022/12/30 04:26:11;;;;;;;1.33;1.23;;;12.70;71.90;;;;;;5095530;28;20477;-72
2022/12/30 04:28:38;;;;;;;3.27;1.33;;;12.60;71.70;;;;;;5095431;28;20450;-73
2022/12/30 04:31:06;;;;;;;1.77;1.40;;;12.60;71.60;;;;;;5094740;28;20458;-73
2022/12/30 04:33:33;;;;;;;2.17;1.50;;;12.60;71.50;;;;;;5094347;28;20531;-72
2022/12/30 04:36:00;;;;;;;1.50;1.40;;;12.50;71.00;;;;;;5075587;28;20965;-72
2022/12/30 04:38:27;;;;;;;1.43;1.30;;;12.40;70.70;;;;;;5075221;28;20538;-72
2022/12/30 04:40:54;;;;;;;3.13;1.60;;;12.40;70.30;;;;;;5077314;28;20451;-70
2022/12/30 04:43:22;;;;;;;1.67;1.57;;;12.30;70.90;;;;;;5095259;28;20506;-72
2022/12/30 04:45:49;;;;;;;2.27;1.40;;;12.30;70.50;;;;;;5093740;28;20520;-72
2022/12/30 04:48:16;;;;;;;2.10;1.40;;;12.20;70.80;;;;;;5095483;28;20541;-73
2022/12/30 04:50:44;;;;;;;2.03;1.37;;;12.20;70.50;;;;;;5094877;28;20542;-73
2022/12/30 04:53:12;;;;;;;3.43;1.50;;;12.20;70.30;;;;;;5094136;28;20511;-73
2022/12/30 04:55:39;;;;;;;1.70;1.60;;;12.10;70.00;;;;;;5095280;28;20541;-73
2022/12/30 04:58:07;;;;;;;2.07;1.40;;;12.10;69.60;;;;;;5094127;28;20453;-72
2022/12/30 05:00:35;;;;;;;2.07;1.40;;;12.00;69.40;;;;;;5094316;28;21040;-72
2022/12/30 05:03:02;;;;;;;2.20;1.60;;;12.00;69.40;;;;;;5094161;28;20446;-72
2022/12/30 05:05:30;;;;;;;1.53;1.43;;;11.90;69.70;;;;;;5094188;28;20573;-72
2022/12/30 05:07:57;;;;;;;1.43;1.33;;;11.90;69.80;;;;;;5094214;28;20458;-71
2022/12/30 05:10:24;;;;;;;1.37;1.27;;;11.70;69.40;;;;;;5094707;28;20451;-73
2022/12/30 05:12:51;;;;;;;1.73;1.63;;;11.80;69.60;;;;;;5093823;28;20529;-73
2022/12/30 05:15:18;;;;;;;1.80;1.70;;;11.80;69.30;;;;;;5093898;28;20473;-72
2022/12/30 05:17:46;;;;;;;1.73;1.50;;;11.70;69.20;;;;;;5094107;28;20454;-72
2022/12/30 05:20:13;;;;;;;2.67;1.70;;;11.60;69.50;;;;;;5094092;28;20958;-72
2022/12/30 05:22:40;;;;;;;2.07;1.73;;;11.60;69.40;;;;;;5094436;28;20532;-72
2022/12/30 05:27:53;;;;;;;2.40;1.80;;;11.50;69.70;;;;;;5090881;28;20936;-72
2022/12/30 05:30:20;;;;;;;3.50;1.90;;;11.40;69.50;;;;;;5074121;28;20974;-72
2022/12/30 05:32:48;;;;;;;2.30;2.10;;;11.40;69.50;;;;;;5092743;28;20984;-72
2022/12/30 05:35:16;;;;;;;1.90;1.80;;;11.40;69.10;;;;;;5093441;28;20447;-72
2022/12/30 05:37:43;;;;;;;2.40;2.20;;;11.40;68.90;;;;;;5094174;28;20461;-72
2022/12/30 05:40:11;;;;;;;2.07;1.90;;;11.30;68.80;;;;;;5094049;28;20458;-71
2022/12/30 05:42:38;;;;;;;2.13;1.97;;;11.30;68.90;;;;;;5093343;28;20470;-73
2022/12/30 05:45:07;;;;;;;2.20;2.00;;;11.30;68.60;;;;;;5092691;28;20512;-72
2022/12/30 05:47:34;;;;;;;2.77;2.17;;;11.20;68.50;;;;;;5094060;28;20543;-71
2022/12/30 05:50:02;;;;;;;3.07;2.47;;;11.20;68.60;;;;;;5093462;28;20504;-72
2022/12/30 05:52:30;;;;;;;3.00;2.23;;;11.10;68.40;;;;;;5093771;28;20450;-72
2022/12/30 05:54:57;;;;;;;2.57;2.10;;;11.20;68.60;;;;;;5093112;28;20457;-72
2022/12/30 05:57:24;;;;;;;2.43;2.23;;;11.10;68.60;;;;;;5093208;28;20458;-72
2022/12/30 05:59:51;;;;;;;2.40;2.20;;;11.10;68.20;;;;;;5093995;28;20451;-72
2022/12/30 06:02:19;;;;;;;3.40;2.03;;;11.10;68.00;;;;;;5093932;28;20451;-72
2022/12/30 06:04:46;;;;;;;2.37;2.10;;;11.10;68.30;;;;;;5091493;28;20462;-72
2022/12/30 06:07:14;;;;;;;2.30;2.10;;;11.00;68.00;;;;;;5093242;28;20911;-72
2022/12/30 06:09:41;;;;;;;2.77;2.07;;;11.00;68.20;;;;;;5093928;28;20457;-72
2022/12/30 06:12:08;;;;;;;2.47;2.00;;;10.90;68.20;;;;;;5092268;28;20780;-71
2022/12/30 06:14:35;;;;;;;3.20;2.07;;;10.90;68.30;;;;;;5093491;28;20530;-71
2022/12/30 06:17:02;;;;;;;1.80;1.70;;;10.90;68.10;;;;;;5093452;28;20928;-72
2022/12/30 06:19:29;;;;;;;2.37;2.17;;;10.90;68.90;;;;;;5090098;28;20624;-71
2022/12/30 06:21:56;;;;;;;4.17;2.27;;;10.80;68.10;;;;;;5082880;28;20545;-72
2022/12/30 06:24:24;;;;;;;2.33;2.13;;;10.80;68.00;;;;;;5093403;28;20770;-71
2022/12/30 06:26:51;;;;;;;3.47;2.17;;;10.80;67.90;;;;;;5092167;28;20481;-71
2022/12/30 06:29:18;;;;;;;2.70;2.00;;;10.70;67.70;;;;;;5092932;28;20536;-71
2022/12/30 06:31:45;;;;;;;2.23;2.03;;;10.70;67.30;;;;;;5093562;28;20840;-72
2022/12/30 06:34:12;;;;;;;2.40;2.20;;;10.60;66.80;;;;;;5092329;28;20451;-73
2022/12/30 06:36:39;;;;;;;2.60;2.40;;;10.60;67.10;;;;;;5093574;28;20445;-70
2022/12/30 06:39:06;;;;;;;4.10;2.17;;;10.60;67.20;;;;;;5092956;28;20764;-73
2022/12/30 06:41:34;;;;;;;2.60;2.07;;;10.60;67.20;;;;;;5092402;28;20486;-72
2022/12/30 06:44:01;;;;;;;4.23;2.10;;;10.50;67.10;;;;;;5091893;28;20471;-72
2022/12/30 06:46:28;;;;;;;2.30;2.10;;;10.50;66.90;;;;;;5091921;28;20581;-72
2022/12/30 06:48:55;;;;;;;1.83;1.73;;;10.50;67.00;;;;;;5093096;28;20821;-72
2022/12/30 06:51:22;;;;;;;2.40;2.17;;;10.50;67.00;;;;;;5093045;28;20478;-72
2022/12/30 06:53:49;;;;;;;2.40;1.90;;;10.50;67.30;;;;;;5092719;28;20493;-71
2022/12/30 06:56:16;;;;;;;2.80;2.47;;;10.40;67.30;;;;;;5091864;28;21323;-72
2022/12/30 06:58:44;;;;;;;2.50;2.30;;;10.40;67.20;;;;;;5092590;28;20489;-71
2022/12/30 07:01:11;;;;;;;3.60;2.17;;;10.40;67.20;;;;;;5092081;28;20504;-72
2022/12/30 07:03:38;;;;;;;3.47;2.50;;;10.30;67.40;;;;;;5092464;28;20485;-72
2022/12/30 07:06:06;;;;;;;2.57;1.90;;;10.30;67.40;;;;;;5091981;28;21068;-72
2022/12/30 07:08:33;;;;;;;2.57;2.03;;;10.30;67.20;;;;;;5092457;28;20453;-72
2022/12/30 07:11:00;;;;;;;2.20;2.00;;;10.30;67.00;;;;;;5091302;28;20458;-72
2022/12/30 07:13:28;;;;;;;3.50;2.00;;;10.30;67.20;;;;;;5089536;28;20457;-71
2022/12/30 07:15:56;;;;;;;2.60;2.40;;;10.20;67.00;;;;;;5072356;28;20475;-71
2022/12/30 07:18:23;;;;;;;2.60;2.10;;;10.30;66.70;;;;;;5078480;28;20855;-72
2022/12/30 07:20:50;;;;;;;2.23;2.03;;;10.20;66.80;;;;;;5092627;28;20816;-71
2022/12/30 07:23:17;;;;;;;2.70;2.20;;;10.20;66.70;;;;;;5082689;28;20450;-71
2022/12/30 07:25:47;;;;;;;3.63;2.43;;;10.10;66.40;;;;;;5092440;28;20446;-71
2022/12/30 07:28:14;;;;;;;3.43;2.23;;;10.10;66.40;;;;;;5091597;28;20546;-71
2022/12/30 07:30:41;;;;;;;3.40;2.10;;;10.10;66.60;;;;;;5092421;28;20528;-71
2022/12/30 07:33:10;;;;;;;2.53;2.33;;;10.10;66.60;;;;;;5091698;28;20450;-73
2022/12/30 07:35:37;;;;;;;2.23;2.10;;;10.10;66.50;;;;;;5092525;28;20538;-72
2022/12/30 07:38:04;;;;;;;2.90;2.27;;;10.10;66.70;;;;;;5091354;28;20446;-72
2022/12/30 07:40:30;;;;;;;2.43;2.10;;;10.10;66.70;;;;;;5091669;28;21008;-72
2022/12/30 07:42:57;;;;;;;1.90;1.80;;;10.10;66.60;;;;;;5091557;28;20477;-72
2022/12/30 07:45:26;;;;;;;2.97;1.80;;;10.10;66.60;;;;;;5091522;28;20574;-72
2022/12/30 07:47:53;;;;;;;1.60;1.50;;;10.10;66.40;;;;;;5092329;28;20516;-72
2022/12/30 07:50:21;;;;;;;2.70;1.50;;;10.10;66.40;;;;;;5091713;28;20968;-73
2022/12/30 07:52:48;;;;;;;2.60;1.60;;;10.10;66.40;;;;;;5091699;28;20869;-70
2022/12/30 07:55:15;;;;;;;2.03;1.77;;;10.10;66.40;;;;;;5091347;28;20504;-73
2022/12/30 07:57:42;;;;;;;1.40;1.30;;;10.20;66.60;;;;;;5092031;28;20966;-72
2022/12/30 08:00:10;;;;;;;1.73;1.50;;;10.20;66.50;;;;;;5095399;28;20451;-72
2022/12/30 08:02:38;;;;;;;1.27;1.20;;;10.30;66.80;;;;;;5095786;28;20446;-70
2022/12/30 08:05:06;;;;;;;1.00;1.00;;;10.30;66.80;;;;;;5094315;28;20453;-72
2022/12/30 08:07:34;;;;;;;1.57;1.40;;;10.40;66.90;;;;;;5089796;28;20518;-72
2022/12/30 08:10:02;;;;;;;1.73;1.40;;;10.40;66.70;;;;;;5093425;28;20806;-70
2022/12/30 08:12:30;;;;;;;1.60;1.50;;;10.40;66.90;;;;;;5095649;28;20572;-72
2022/12/30 08:15:02;;;;;;;1.77;1.40;;;10.40;66.90;;;;;;5095322;28;20454;-72
2022/12/30 08:17:29;;;;;;;2.30;1.63;;;10.50;67.20;;;;;;5096190;28;20437;-71
2022/12/30 08:19:56;;;;;;;1.40;1.30;;;10.50;67.40;;;;;;5094822;28;20478;-71
2022/12/30 08:22:27;;;;;;;2.43;1.50;;;10.60;67.60;;;;;;5094768;28;20446;-74
2022/12/30 08:24:55;;;;;;;1.27;1.20;;;10.60;67.80;;;;;;5095393;28;20516;-72
2022/12/30 08:27:22;;;;;;;1.70;1.60;;;10.70;67.80;;;;;;5095211;28;20493;-72
2022/12/30 08:29:49;;;;;;;2.53;1.73;;;10.80;67.90;;;;;;5095389;28;20450;-72
2022/12/30 08:32:16;;;;;;;2.27;1.70;;;10.80;67.70;;;;;;5094953;28;20490;-72
2022/12/30 08:34:45;;;;;;;2.10;1.70;;;10.90;68.70;;;;;;5094424;28;20478;-74
2022/12/30 08:37:12;;;;;;;2.13;1.93;;;11.00;68.90;;;;;;5094119;28;20450;-72
2022/12/30 08:39:39;;;;;;;4.20;2.00;;;11.00;68.00;;;;;;5095033;28;20504;-74
2022/12/30 08:42:08;;;;;;;2.20;2.00;;;11.10;68.20;;;;;;5094930;28;20493;-73
2022/12/30 08:44:35;;;;;;;2.60;2.07;;;11.20;68.30;;;;;;5093494;28;20485;-72
2022/12/30 08:47:02;;;;;;;2.10;1.90;;;11.30;68.40;;;;;;5095041;28;20824;-74
2022/12/30 08:49:30;;;;;;;3.13;2.83;;;11.40;69.10;;;;;;5094519;28;20450;-74
2022/12/30 08:51:57;;;;;;;6.67;4.33;;;11.50;68.40;;;;;;5084444;28;20846;-73
2022/12/30 08:54:24;;;;;;;3.60;3.10;;;11.60;68.30;;;;;;5110564;28;20493;-74
2022/12/30 08:56:51;;;;;;;3.90;2.80;;;11.70;68.00;;;;;;5096594;28;20453;-74
2022/12/30 08:59:19;;;;;;;2.70;2.50;;;11.80;68.00;;;;;;5091932;28;20498;-75
2022/12/30 09:01:47;;;;;;;3.63;2.90;;;11.90;68.00;;;;;;5089284;28;20495;-73
2022/12/30 09:04:14;;;;;;;4.27;3.00;;;11.90;68.10;;;;;;5095137;28;20454;-73
2022/12/30 09:06:42;;;;;;;3.43;2.90;;;12.00;68.00;;;;;;5115150;28;20475;-74
2022/12/30 09:09:11;;;;;;;3.20;2.60;;;12.10;68.40;;;;;;5102182;28;20466;-73
2022/12/30 09:11:40;;;;;;;2.40;2.20;;;12.30;68.00;;;;;;5094331;28;20534;-73
2022/12/30 09:14:08;;;;;;;3.70;2.70;;;12.40;68.20;;;;;;5093436;28;20560;-74
2022/12/30 09:16:37;;;;;;;3.10;2.70;;;12.50;68.20;;;;;;5093952;28;20522;-73
2022/12/30 09:19:04;;;;;;;3.13;2.43;;;12.60;68.20;;;;;;5094279;28;20853;-74
2022/12/30 09:21:31;;;;;;;3.37;2.40;;;12.80;68.80;;;;;;5091450;28;20582;-74
2022/12/30 09:23:58;;;;;;;2.87;2.23;;;12.90;68.50;;;;;;5093165;28;20490;-74
2022/12/30 09:26:27;;;;;;;3.07;2.57;;;13.00;68.50;;;;;;5086964;28;20847;-72
2022/12/30 09:28:55;;;;;;;3.60;2.90;;;13.10;68.80;;;;;;5094405;28;20477;-74
2022/12/30 09:31:22;;;;;;;3.90;2.20;;;13.20;68.00;;;;;;5084669;28;20450;-74
2022/12/30 09:33:52;;;;;;;2.93;2.10;;;13.30;67.10;;;;;;5090344;28;20466;-74
2022/12/30 09:36:19;;;;;;;2.77;2.30;;;13.40;67.30;;;;;;5082599;28;20455;-74
2022/12/30 09:38:47;;;;;;;3.50;2.50;;;13.50;67.70;;;;;;5094388;28;20870;-74
2022/12/30 09:43:15;;;;;;;3.23;2.23;;;13.60;67.70;;;;;;5078939;28;20510;-74
2022/12/30 09:44:21;;;;;;;2.33;2.00;;;13.80;66.70;;;;;;5102317;28;20664;-74
2022/12/30 09:46:53;;;;;;;2.73;1.67;;;13.90;65.60;;;;;;5111202;28;20524;-74
2022/12/30 09:49:29;;;;;;;2.03;1.60;;;14.10;65.00;;;;;;5098552;28;20471;-74
2022/12/30 09:52:04;;;;;;;1.60;1.40;;;14.30;64.90;;;;;;5094229;28;20457;-74
2022/12/30 09:54:32;;;;;;;2.00;1.40;;;14.40;64.10;;;;;;5108348;28;20501;-74
2022/12/30 09:57:30;;;;;;;1.97;1.57;;;14.50;63.60;;;;;;5091982;28;20504;-74
2022/12/30 09:59:54;;;;;;;1.53;1.17;;;14.60;63.30;;;;;;5091837;28;20457;-74
2022/12/30 10:02:23;;;;;;;2.90;1.43;;;14.80;63.50;;;;;;5084939;28;20509;-74
2022/12/30 10:04:52;;;;;;;3.43;1.80;;;14.80;62.90;;;;;;5073600;28;20451;-74
2022/12/30 10:07:27;;;;;;;1.70;1.37;;;14.90;63.10;;;;;;5099165;28;20564;-74
2022/12/30 10:09:58;;;;;;;2.53;1.60;;;15.00;61.50;;;;;;5102781;28;20473;-74
2022/12/30 10:12:40;;;;;;;1.70;1.50;;;15.10;61.40;;;;;;5097488;28;20492;-74
2022/12/30 10:15:25;;;;;;;2.10;1.30;;;15.30;61.30;;;;;;5100005;28;20577;-73
2022/12/30 10:18:21;;;;;;;1.63;1.40;;;15.30;60.30;;;;;;5090211;28;20443;-73
2022/12/30 10:20:57;;;;;;;3.03;1.43;;;15.30;59.80;;;;;;5096900;28;20541;-73
2022/12/30 10:23:46;;;;;;;2.10;1.50;;;15.40;60.70;;;;;;5090501;28;20450;-73
2022/12/30 10:26:16;;;;;;;2.23;1.33;;;15.50;60.30;;;;;;5086179;28;20899;-74
2022/12/30 10:28:48;;;;;;;1.40;1.30;;;15.50;60.80;;;;;;5097031;28;20515;-74
2022/12/30 10:31:20;;;;;;;2.10;1.40;;;15.50;59.70;;;;;;5102901;28;20867;-74
2022/12/30 10:33:49;;;;;;;2.20;1.30;;;15.50;59.80;;;;;;5098435;28;20468;-73
2022/12/30 10:36:22;;;;;;;1.43;1.33;;;15.40;59.70;;;;;;5103776;28;20498;-74
2022/12/30 10:38:49;;;;;;;2.30;1.43;;;15.50;59.90;;;;;;5081649;28;20514;-73
2022/12/30 10:41:33;;;;;;;1.60;1.40;;;15.60;59.80;;;;;;5088330;28;20857;-74
2022/12/30 10:44:12;;;;;;;1.53;1.17;;;15.70;58.90;;;;;;5080738;28;20436;-73
2022/12/30 10:47:07;;;;;;;1.50;1.30;;;15.60;59.00;;;;;;5072322;28;20581;-73
2022/12/30 10:49:56;;;;;;;2.70;1.50;;;15.60;58.10;;;;;;5053578;28;20530;-73
2022/12/30 10:52:25;;;;;;;1.10;1.03;;;15.60;58.50;;;;;;5098440;28;20537;-73
2022/12/30 10:54:52;;;;;;;1.97;1.27;;;15.60;58.80;;;;;;5085365;28;20942;-73
2022/12/30 10:57:23;;;;;;;1.40;1.30;;;15.60;58.80;;;;;;5094788;28;20536;-73
2022/12/30 10:59:50;;;;;;;2.30;1.20;;;15.60;58.60;;;;;;5084279;28;21006;-73
2022/12/30 11:02:21;;;;;;;2.03;1.50;;;15.60;58.80;;;;;;5085591;28;20463;-73
2022/12/30 11:04:48;;;;;;;3.10;1.50;;;15.60;58.80;;;;;;5084620;28;20457;-73
2022/12/30 11:07:17;;;;;;;1.80;1.40;;;15.60;58.60;;;;;;5110479;28;20568;-74
2022/12/30 11:09:47;;;;;;;2.07;1.60;;;15.60;58.70;;;;;;5104886;28;20472;-73
2022/12/30 11:15:29;;;;;;;1.60;1.50;;;15.80;58.40;;;;;;5112494;28;20426;-73
2022/12/30 11:17:58;;;;;;;2.90;1.40;;;15.90;58.30;;;;;;5091121;28;20470;-73
2022/12/30 11:20:33;;;;;;;2.37;1.57;;;16.00;58.10;;;;;;5094593;27;20539;-75
2022/12/30 11:23:03;;;;;;;3.47;1.87;;;16.10;58.00;;;;;;5076321;28;20497;-74
2022/12/30 11:25:38;;;;;;;2.10;1.40;;;16.10;57.90;;;;;;5079602;28;20542;-72
2022/12/30 11:28:08;;;;;;;3.27;1.50;;;16.20;58.30;;;;;;5084870;28;20473;-71
2022/12/30 11:30:37;;;;;;;1.53;1.40;;;16.30;58.30;;;;;;5076555;28;21282;-71
2022/12/30 11:33:07;;;;;;;1.57;1.47;;;16.30;58.10;;;;;;5090834;28;20519;-72
2022/12/30 11:35:37;;;;;;;1.17;1.07;;;16.20;58.10;;;;;;5088833;28;20475;-71
2022/12/30 11:38:13;;;;;;;2.23;1.30;;;16.20;58.10;;;;;;5100663;28;20829;-71
2022/12/30 11:40:42;;;;;;;1.73;1.63;;;16.20;57.60;;;;;;5088106;28;20446;-71
2022/12/30 11:43:14;;;;;;;2.77;1.40;;;16.10;57.70;;;;;;5087666;28;20462;-72
2022/12/30 11:45:55;;;;;;;2.50;1.30;;;15.90;57.20;;;;;;5083007;28;20494;-71
2022/12/30 11:48:31;;;;;;;1.73;1.23;;;15.80;57.70;;;;;;5090741;28;20544;-72
2022/12/30 11:50:59;;;;;;;1.40;1.13;;;15.80;57.80;;;;;;5081997;28;20454;-71
2022/12/30 11:53:30;;;;;;;2.37;1.30;;;15.70;58.10;;;;;;5087087;28;20558;-72
2022/12/30 11:55:59;;;;;;;2.60;1.50;;;15.70;58.10;;;;;;5092044;28;20966;-73
2022/12/30 11:58:26;;;;;;;1.50;1.30;;;15.70;58.20;;;;;;5091388;28;20985;-73
2022/12/30 12:01:02;;;;;;;1.33;1.10;;;15.70;58.50;;;;;;5094517;28;20469;-71
2022/12/30 12:03:30;;;;;;;1.60;1.10;;;15.60;58.20;;;;;;5090202;28;20461;-71
2022/12/30 12:06:09;;;;;;;1.30;1.20;;;15.60;58.10;;;;;;5098167;28;20466;-71
2022/12/30 12:08:41;;;;;;;1.20;1.10;;;15.60;58.10;;;;;;5092644;28;22264;-71
2022/12/30 12:11:15;;;;;;;1.53;1.43;;;15.60;58.40;;;;;;5080376;28;20856;-71
2022/12/30 12:13:52;;;;;;;1.80;1.30;;;15.60;58.80;;;;;;5086102;28;20454;-71
2022/12/30 12:16:38;;;;;;;1.10;1.00;;;15.60;59.00;;;;;;5089089;28;20458;-69
2022/12/30 12:19:17;;;;;;;2.00;1.20;;;15.60;59.00;;;;;;5087782;28;20480;-71
2022/12/30 12:21:47;;;;;;;1.80;1.10;;;15.60;59.20;;;;;;5083530;28;20469;-71
2022/12/30 12:24:21;;;;;;;1.53;1.20;;;15.60;59.10;;;;;;5091270;28;20439;-71
2022/12/30 12:26:55;;;;;;;1.50;1.30;;;15.60;59.60;;;;;;5091622;28;20443;-71
2022/12/30 12:29:22;;;;;;;1.60;1.20;;;15.60;59.40;;;;;;5090376;28;20970;-71
2022/12/30 12:32:08;;;;;;;4.97;2.33;;;15.60;58.60;;;;;;5091209;28;20459;-70
2022/12/30 12:34:45;;;;;;;1.10;1.00;;;15.60;58.70;;;;;;5071199;28;20431;-70
2022/12/30 12:37:26;;;;;;;1.80;1.13;;;15.60;58.60;;;;;;5071452;28;20469;-70
2022/12/30 12:40:09;;;;;;;2.40;1.20;;;15.50;58.80;;;;;;5077802;28;20953;-71
2022/12/30 12:42:48;;;;;;;2.27;1.27;;;15.60;58.90;;;;;;5090718;28;20550;-70
2022/12/30 12:45:42;;;;;;;1.23;1.10;;;15.60;58.60;;;;;;5092667;28;20457;-71
2022/12/30 12:48:40;;;;;;;1.23;0.90;;;15.70;58.50;;;;;;5094699;28;20531;-70
2022/12/30 12:51:27;;;;;;;0.80;0.80;;;16.00;57.90;;;;;;5105273;28;20460;-70
2022/12/30 12:54:08;;;;;;;1.10;1.00;;;16.50;57.20;;;;;;5099149;28;20451;-70
2022/12/30 12:57:01;;;;;;;1.80;0.80;;;17.00;56.20;;;;;;5094028;28;20438;-70
2022/12/30 12:59:59;;;;;;;1.30;1.20;;;17.40;55.40;;;;;;5094165;28;20503;-70
2022/12/30 13:02:57;;;;;;;2.37;1.03;;;17.60;54.80;;;;;;5094048;28;20490;-70
2022/12/30 13:05:29;;;;;;;1.33;1.20;;;17.40;55.10;;;;;;5094422;28;20783;-70
2022/12/30 13:08:05;;;;;;;1.60;1.30;;;17.00;55.30;;;;;;5094937;28;20476;-70
2022/12/30 13:10:40;;;;;;;1.30;1.20;;;16.70;56.10;;;;;;5093638;28;20835;-70
2022/12/30 13:13:15;;;;;;;1.20;1.10;;;16.60;56.80;;;;;;5093539;28;20532;-70
2022/12/30 13:15:47;;;;;;;1.37;1.07;;;16.40;56.60;;;;;;5094877;28;20441;-70
2022/12/30 13:18:18;;;;;;;1.27;1.17;;;16.20;57.10;;;;;;5093808;28;20549;-71
2022/12/30 13:20:49;;;;;;;0.90;0.90;;;16.10;57.00;;;;;;5091370;28;20573;-70
2022/12/30 13:23:19;;;;;;;2.10;1.30;;;15.90;57.40;;;;;;5092591;28;20459;-70
2022/12/30 13:25:51;;;;;;;1.43;1.33;;;15.70;58.10;;;;;;5094336;28;20910;-70
2022/12/30 13:28:23;;;;;;;1.53;1.43;;;15.70;57.90;;;;;;5092933;28;20477;-70
2022/12/30 13:31:02;;;;;;;1.30;1.20;;;15.60;58.00;;;;;;5093570;28;20449;-70
2022/12/30 13:33:35;;;;;;;1.30;1.20;;;15.50;58.20;;;;;;5088775;28;20781;-70
2022/12/30 13:36:11;;;;;;;2.10;1.27;;;15.50;58.80;;;;;;5094113;28;20485;-70
2022/12/30 13:38:52;;;;;;;1.50;1.40;;;15.40;58.50;;;;;;5093283;28;20442;-70
2022/12/30 13:41:53;;;;;;;1.30;1.20;;;15.40;58.70;;;;;;5092911;28;20446;-70
2022/12/30 13:44:21;;;;;;;1.20;1.10;;;15.40;59.00;;;;;;5090877;28;20485;-70
2022/12/30 13:46:53;;;;;;;1.70;1.57;;;15.40;58.80;;;;;;5092006;28;20985;-70
2022/12/30 13:49:27;;;;;;;2.20;1.30;;;15.30;59.10;;;;;;5092734;28;20572;-70
2022/12/30 13:51:59;;;;;;;1.33;1.23;;;15.20;59.30;;;;;;5092770;28;20458;-70
2022/12/30 13:58:51;;;;;;;1.43;1.33;;;15.20;59.70;;;;;;5072476;28;20441;-68
2022/12/30 14:02:16;;;;;;;1.43;1.30;;;15.20;60.30;;;;;;5088843;28;20868;-69
2022/12/30 14:04:49;;;;;;;2.00;1.40;;;15.10;60.80;;;;;;5084193;28;20453;-70